createdAt,value
2017-10-19T00:01:10.601Z,100799.53
2017-10-19T00:03:38.259Z,100792.39
2017-10-19T00:06:05.883Z,100796.24
2017-10-19T00:08:33.482Z,100797.33
2017-10-19T00:11:01.111Z,100800.70
2017-10-19T00:13:28.717Z,100794.59
2017-10-19T00:15:56.342Z,100798.12
2017-10-19T00:18:23.933Z,100797.18
2017-10-19T00:20:51.594Z,100800.00
2017-10-19T00:23:19.194Z,100795.36
2017-10-19T00:25:46.822Z,100797.85
2017-10-19T00:28:14.418Z,100793.69
2017-10-19T00:30:42.056Z,100794.59
2017-10-19T00:33:09.729Z,100794.86
2017-10-19T00:35:37.349Z,100790.58
2017-10-19T00:38:04.919Z,100785.35
2017-10-19T00:40:32.559Z,100790.84
2017-10-19T00:43:00.164Z,100782.59
2017-10-19T00:45:27.798Z,100786.12
2017-10-19T00:47:55.423Z,100778.91
2017-10-19T00:50:23.066Z,100776.27
2017-10-19T00:52:50.684Z,100781.84
2017-10-19T00:55:18.306Z,100778.23
2017-10-19T00:57:45.930Z,100778.31
2017-10-19T01:00:13.587Z,100775.91
2017-10-19T01:02:41.188Z,100774.70
2017-10-19T01:05:08.795Z,100775.91
2017-10-19T01:07:36.434Z,100769.37
2017-10-19T01:10:04.090Z,100766.14
2017-10-19T01:12:31.700Z,100762.45
2017-10-19T01:14:59.465Z,100768.43
2017-10-19T01:17:27.132Z,100765.73
2017-10-19T01:19:54.750Z,100761.22
2017-10-19T01:22:22.382Z,100767.08
2017-10-19T01:24:49.975Z,100765.97
2017-10-19T01:27:17.586Z,100769.92
2017-10-19T01:29:45.195Z,100771.02
2017-10-19T01:32:12.823Z,100764.65
2017-10-19T01:34:40.411Z,100768.67
2017-10-19T01:37:08.040Z,100761.95
2017-10-19T01:39:35.623Z,100763.95
2017-10-19T01:42:03.264Z,100762.19
2017-10-19T01:44:30.850Z,100758.69
2017-10-19T01:46:58.467Z,100757.34
2017-10-19T01:49:26.071Z,100755.17
2017-10-19T01:51:53.711Z,100755.61
2017-10-19T01:54:21.349Z,100753.33
2017-10-19T01:56:48.967Z,100756.34
2017-10-19T01:59:16.565Z,100753.15
2017-10-19T02:01:44.210Z,100753.55
2017-10-19T02:04:11.888Z,100747.90
2017-10-19T02:06:39.507Z,100747.08
2017-10-19T02:09:07.146Z,100746.95
2017-10-19T02:11:34.784Z,100751.61
2017-10-19T02:14:02.392Z,100748.12
2017-10-19T02:16:30.016Z,100754.65
2017-10-19T02:18:57.617Z,100749.92
2017-10-19T02:21:25.258Z,100750.70
2017-10-19T02:23:52.850Z,100754.12
2017-10-19T02:26:20.499Z,100750.34
2017-10-19T02:28:48.099Z,100750.98
2017-10-19T02:31:15.810Z,100755.73
2017-10-19T02:33:43.459Z,100760.14
2017-10-19T02:36:11.121Z,100748.00
2017-10-19T02:38:38.755Z,100749.11
2017-10-19T02:41:06.367Z,100757.23
2017-10-19T02:43:34.008Z,100759.70
2017-10-19T02:46:01.608Z,100749.52
2017-10-19T02:48:29.243Z,100748.98
2017-10-19T02:50:56.874Z,100751.88
2017-10-19T02:53:24.520Z,100746.84
2017-10-19T02:55:52.112Z,100745.33
2017-10-19T02:58:19.779Z,100747.33
2017-10-19T03:00:47.374Z,100739.53
2017-10-19T03:03:15.007Z,100739.84
2017-10-19T03:05:42.616Z,100737.19
2017-10-19T03:08:10.255Z,100737.89
2017-10-19T03:10:37.855Z,100743.05
2017-10-19T03:13:05.506Z,100743.77
2017-10-19T03:15:33.115Z,100750.69
2017-10-19T03:18:00.759Z,100748.20
2017-10-19T03:20:28.379Z,100748.50
2017-10-19T03:22:55.994Z,100750.95
2017-10-19T03:25:23.618Z,100754.71
2017-10-19T03:27:51.296Z,100749.87
2017-10-19T03:30:18.921Z,100746.87
2017-10-19T03:32:46.510Z,100746.77
2017-10-19T03:35:14.135Z,100740.70
2017-10-19T03:37:41.749Z,100729.66
2017-10-19T03:40:09.378Z,100730.40
2017-10-19T03:42:37.076Z,100730.70
2017-10-19T03:45:04.722Z,100728.27
2017-10-19T03:47:32.299Z,100730.03
2017-10-19T03:49:59.934Z,100728.56
2017-10-19T03:52:27.577Z,100734.12
2017-10-19T03:54:55.222Z,100731.58
2017-10-19T03:57:22.826Z,100726.17
2017-10-19T03:59:50.452Z,100720.77
2017-10-19T04:02:18.038Z,100727.48
2017-10-19T04:04:45.675Z,100726.98
2017-10-19T04:07:13.271Z,100723.38
2017-10-19T04:09:40.962Z,100721.08
2017-10-19T04:12:08.572Z,100719.02
2017-10-19T04:14:36.327Z,100722.12
2017-10-19T04:17:03.942Z,100719.44
2017-10-19T04:19:31.543Z,100725.13
2017-10-19T04:21:59.187Z,100724.09
2017-10-19T04:24:26.824Z,100722.77
2017-10-19T04:26:54.459Z,100719.40
2017-10-19T04:29:22.834Z,100716.89
2017-10-19T04:31:50.522Z,100709.36
2017-10-19T04:34:18.127Z,100714.09
2017-10-19T04:36:45.784Z,100709.95
2017-10-19T04:39:13.409Z,100708.23
2017-10-19T04:41:41.012Z,100712.75
2017-10-19T04:44:08.649Z,100714.58
2017-10-19T04:46:36.283Z,100716.62
2017-10-19T04:49:03.926Z,100715.91
2017-10-19T04:51:31.548Z,100707.41
2017-10-19T04:53:59.206Z,100701.08
2017-10-19T04:56:26.831Z,100705.27
2017-10-19T04:58:54.466Z,100702.42
2017-10-19T05:01:22.067Z,100702.02
2017-10-19T05:03:49.701Z,100705.27
2017-10-19T05:06:17.306Z,100705.14
2017-10-19T05:08:44.930Z,100703.80
2017-10-19T05:11:12.536Z,100695.91
2017-10-19T05:13:40.330Z,100695.27
2017-10-19T05:16:07.918Z,100692.58
2017-10-19T05:18:35.538Z,100693.92
2017-10-19T05:21:03.208Z,100691.37
2017-10-19T05:23:30.852Z,100689.55
2017-10-19T05:25:58.505Z,100687.52
2017-10-19T05:28:26.123Z,100691.35
2017-10-19T05:30:53.778Z,100691.37
2017-10-19T05:33:21.394Z,100695.56
2017-10-19T05:35:49.031Z,100696.82
2017-10-19T05:38:16.621Z,100706.39
2017-10-19T05:40:44.263Z,100708.44
2017-10-19T05:43:11.872Z,100702.91
2017-10-19T05:45:39.504Z,100701.14
2017-10-19T05:48:07.126Z,100703.67
2017-10-19T05:50:34.855Z,100699.59
2017-10-19T05:53:02.470Z,100700.27
2017-10-19T05:55:30.199Z,100699.84
2017-10-19T05:57:57.807Z,100695.69
2017-10-19T06:00:25.435Z,100693.15
2017-10-19T06:02:53.028Z,100693.45
2017-10-19T06:05:20.742Z,100698.75
2017-10-19T06:07:48.362Z,100697.42
2017-10-19T06:10:15.994Z,100697.57
2017-10-19T06:12:43.594Z,100697.75
2017-10-19T06:15:11.311Z,100707.82
2017-10-19T06:17:38.918Z,100705.13
2017-10-19T06:20:06.563Z,100706.23
2017-10-19T06:22:34.182Z,100704.07
2017-10-19T06:25:01.808Z,100701.49
2017-10-19T06:27:29.419Z,100697.22
2017-10-19T06:29:57.064Z,100696.81
2017-10-19T06:32:24.658Z,100702.73
2017-10-19T06:34:52.295Z,100701.11
2017-10-19T06:37:19.892Z,100702.06
2017-10-19T06:39:47.537Z,100703.12
2017-10-19T06:42:15.127Z,100706.19
2017-10-19T06:44:42.783Z,100698.27
2017-10-19T06:47:10.416Z,100700.58
2017-10-19T06:49:38.099Z,100696.78
2017-10-19T06:52:05.707Z,100693.94
2017-10-19T06:54:33.337Z,100695.69
2017-10-19T06:57:00.944Z,100703.98
2017-10-19T06:59:28.538Z,100706.53
2017-10-19T07:01:56.174Z,100713.09
2017-10-19T07:04:23.775Z,100714.16
2017-10-19T07:06:51.429Z,100720.44
2017-10-19T07:09:19.031Z,100718.23
2017-10-19T07:11:46.676Z,100720.77
2017-10-19T07:14:14.267Z,100721.99
2017-10-19T07:16:41.907Z,100715.39
2017-10-19T07:19:09.491Z,100713.98
2017-10-19T07:21:37.122Z,100704.80
2017-10-19T07:24:04.798Z,100708.37
2017-10-19T07:26:32.431Z,100708.16
2017-10-19T07:29:00.046Z,100716.02
2017-10-19T07:31:27.670Z,100720.08
2017-10-19T07:33:55.268Z,100721.59
2017-10-19T07:36:22.895Z,100724.55
2017-10-19T07:38:50.528Z,100721.97
2017-10-19T07:41:18.186Z,100721.91
2017-10-19T07:43:45.791Z,100725.55
2017-10-19T07:46:13.483Z,100725.89
2017-10-19T07:48:41.089Z,100726.30
2017-10-19T07:51:08.690Z,100730.14
2017-10-19T07:53:36.339Z,100735.78
2017-10-19T07:56:03.939Z,100736.81
2017-10-19T07:58:31.584Z,100734.45
2017-10-19T08:00:59.204Z,100741.22
2017-10-19T08:03:26.844Z,100740.23
2017-10-19T08:05:54.451Z,100738.93
2017-10-19T08:08:22.092Z,100739.66
2017-10-19T08:10:49.709Z,100746.61
2017-10-19T08:13:17.334Z,100750.84
2017-10-19T08:15:44.970Z,100747.05
2017-10-19T08:18:12.605Z,100748.72
2017-10-19T08:20:40.203Z,100751.47
2017-10-19T08:23:07.838Z,100750.84
2017-10-19T08:25:35.464Z,100747.64
2017-10-19T08:28:03.145Z,100748.25
2017-10-19T08:30:30.774Z,100747.35
2017-10-19T08:32:58.427Z,100737.59
2017-10-19T08:35:26.074Z,100734.84
2017-10-19T08:37:53.743Z,100733.58
2017-10-19T08:40:21.403Z,100740.24
2017-10-19T08:42:49.079Z,100737.63
2017-10-19T08:45:16.682Z,100739.80
2017-10-19T08:47:44.335Z,100739.19
2017-10-19T08:50:11.959Z,100744.09
2017-10-19T08:52:39.614Z,100738.83
2017-10-19T08:55:07.787Z,100738.48
2017-10-19T08:57:35.427Z,100743.30
2017-10-19T09:00:03.055Z,100739.50
2017-10-19T09:02:30.744Z,100742.89
2017-10-19T09:04:58.372Z,100734.84
2017-10-19T09:07:26.021Z,100733.05
2017-10-19T09:09:53.631Z,100733.65
2017-10-19T09:12:21.277Z,100732.14
2017-10-19T09:14:48.903Z,100728.46
2017-10-19T09:17:16.564Z,100719.48
2017-10-19T09:19:44.174Z,100720.23
2017-10-19T09:22:11.823Z,100726.34
2017-10-19T09:24:39.428Z,100720.88
2017-10-19T09:27:07.068Z,100723.08
2017-10-19T09:29:34.679Z,100718.70
2017-10-19T09:32:02.353Z,100718.13
2017-10-19T09:34:29.971Z,100717.98
2017-10-19T09:36:57.633Z,100716.59
2017-10-19T09:39:25.243Z,100708.59
2017-10-19T09:41:52.870Z,100707.54
2017-10-19T09:44:20.486Z,100708.01
2017-10-19T09:46:48.160Z,100701.09
2017-10-19T09:49:15.756Z,100697.80
2017-10-19T09:51:43.447Z,100696.15
2017-10-19T09:54:11.207Z,100691.70
2017-10-19T09:56:38.887Z,100696.41
2017-10-19T09:59:06.539Z,100703.98
2017-10-19T10:01:34.159Z,100690.62
2017-10-19T10:04:01.791Z,100676.14
2017-10-19T10:06:29.422Z,100684.05
2017-10-19T10:08:57.063Z,100674.83
2017-10-19T10:11:24.686Z,100683.00
2017-10-19T10:13:52.295Z,100678.20
2017-10-19T10:16:19.907Z,100678.89
2017-10-19T10:18:47.543Z,100672.84
2017-10-19T10:21:15.148Z,100671.33
2017-10-19T10:23:42.775Z,100669.36
2017-10-19T10:26:10.433Z,100672.14
2017-10-19T10:28:38.069Z,100669.06
2017-10-19T10:31:05.675Z,100672.25
2017-10-19T10:33:33.349Z,100673.15
2017-10-19T10:36:01.065Z,100672.56
2017-10-19T10:38:28.731Z,100662.47
2017-10-19T10:40:56.346Z,100661.41
2017-10-19T10:43:24.014Z,100662.31
2017-10-19T10:45:51.618Z,100654.47
2017-10-19T10:48:19.240Z,100642.42
2017-10-19T10:50:46.871Z,100643.27
2017-10-19T10:53:14.511Z,100645.15
2017-10-19T10:55:43.752Z,100643.61
2017-10-19T10:58:11.443Z,100633.70
2017-10-19T11:00:39.059Z,100642.52
2017-10-19T11:03:06.693Z,100637.19
2017-10-19T11:05:34.299Z,100640.16
2017-10-19T11:08:01.927Z,100639.52
2017-10-19T11:10:29.531Z,100638.48
2017-10-19T11:12:57.175Z,100637.83
2017-10-19T11:15:24.785Z,100639.55
2017-10-19T11:17:52.526Z,100627.59
2017-10-19T11:20:20.140Z,100628.00
2017-10-19T11:22:47.768Z,100622.13
2017-10-19T11:25:15.411Z,100625.47
2017-10-19T11:27:43.026Z,100617.17
2017-10-19T11:30:10.703Z,100612.27
2017-10-19T11:32:38.311Z,100606.92
2017-10-19T11:35:05.953Z,100603.00
2017-10-19T11:37:33.584Z,100602.56
2017-10-19T11:40:01.225Z,100604.91
2017-10-19T11:42:28.836Z,100591.25
2017-10-19T11:44:56.576Z,100585.23
2017-10-19T11:47:24.189Z,100589.29
2017-10-19T11:49:51.820Z,100588.82
2017-10-19T11:52:19.507Z,100577.77
2017-10-19T11:54:47.165Z,100575.28
2017-10-19T11:57:14.829Z,100575.65
2017-10-19T11:59:42.510Z,100574.81
2017-10-19T12:02:10.148Z,100567.03
2017-10-19T12:04:37.800Z,100563.45
2017-10-19T12:07:05.409Z,100559.70
2017-10-19T12:09:33.052Z,100556.98
2017-10-19T12:12:00.678Z,100549.19
2017-10-19T12:14:28.384Z,100540.84
2017-10-19T12:16:56.011Z,100536.21
2017-10-19T12:19:23.663Z,100527.19
2017-10-19T12:21:51.280Z,100525.02
2017-10-19T12:24:18.943Z,100533.55
2017-10-19T12:26:46.564Z,100539.05
2017-10-19T12:29:14.217Z,100531.38
2017-10-19T12:31:41.841Z,100519.33
2017-10-19T12:34:09.490Z,100519.50
2017-10-19T12:36:37.137Z,100523.48
2017-10-19T12:39:04.782Z,100522.38
2017-10-19T12:41:32.386Z,100522.06
2017-10-19T12:44:00.026Z,100513.14
2017-10-19T12:46:27.647Z,100518.03
2017-10-19T12:48:55.290Z,100524.14
2017-10-19T12:51:22.935Z,100521.33
2017-10-19T12:53:50.637Z,100509.50
2017-10-19T12:56:18.260Z,100508.03
2017-10-19T12:58:45.896Z,100496.65
2017-10-19T13:01:13.533Z,100505.08
2017-10-19T13:03:41.148Z,100503.42
2017-10-19T13:06:08.823Z,100495.44
2017-10-19T13:08:36.434Z,100491.08
2017-10-19T13:11:04.092Z,100481.23
2017-10-19T13:13:31.719Z,100483.55
2017-10-19T13:15:59.357Z,100486.34
2017-10-19T13:18:26.964Z,100489.13
2017-10-19T13:20:54.603Z,100494.49
2017-10-19T13:23:22.225Z,100489.38
2017-10-19T13:25:49.869Z,100482.28
2017-10-19T13:28:17.504Z,100482.27
2017-10-19T13:30:45.167Z,100476.34
2017-10-19T13:33:12.772Z,100480.17
2017-10-19T13:35:40.589Z,100482.27
2017-10-19T13:38:08.207Z,100469.53
2017-10-19T13:40:35.881Z,100470.63
2017-10-19T13:43:03.507Z,100467.19
2017-10-19T13:45:31.174Z,100471.69
2017-10-19T13:47:58.777Z,100460.80
2017-10-19T13:50:26.440Z,100462.84
2017-10-19T13:52:54.105Z,100452.76
2017-10-19T13:55:21.808Z,100443.44
2017-10-19T13:57:49.502Z,100434.72
2017-10-19T14:00:17.152Z,100438.27
2017-10-19T14:02:44.767Z,100440.30
2017-10-19T14:05:12.547Z,100442.32
2017-10-19T14:07:40.155Z,100446.97
2017-10-19T14:10:07.827Z,100448.88
2017-10-19T14:12:35.453Z,100449.41
2017-10-19T14:15:03.096Z,100449.00
2017-10-19T14:17:30.732Z,100453.44
2017-10-19T14:19:58.415Z,100449.65
2017-10-19T14:22:26.081Z,100446.68
2017-10-19T14:24:53.740Z,100442.80
2017-10-19T14:27:21.340Z,100439.45
2017-10-19T14:29:49.000Z,100434.29
2017-10-19T14:32:16.640Z,100437.98
2017-10-19T14:34:44.380Z,100439.00
2017-10-19T14:37:12.004Z,100441.89
2017-10-19T14:39:39.670Z,100443.03
2017-10-19T14:42:07.345Z,100442.74
2017-10-19T14:44:34.969Z,100442.28
2017-10-19T14:47:02.630Z,100451.25
2017-10-19T14:49:30.235Z,100444.84
2017-10-19T14:51:57.884Z,100441.02
2017-10-19T14:54:25.512Z,100437.47
2017-10-19T14:56:53.165Z,100426.53
2017-10-19T14:59:20.812Z,100433.77
2017-10-19T15:01:48.488Z,100428.91
2017-10-19T15:04:16.104Z,100439.05
2017-10-19T15:06:43.757Z,100427.84
2017-10-19T15:09:11.378Z,100426.47
2017-10-19T15:11:39.125Z,100417.76
2017-10-19T15:14:06.745Z,100423.48
2017-10-19T15:16:34.406Z,100424.64
2017-10-19T15:19:02.033Z,100426.64
2017-10-19T15:21:29.756Z,100421.45
2017-10-19T15:23:57.388Z,100424.40
2017-10-19T15:26:25.055Z,100426.84
2017-10-19T15:28:52.711Z,100420.23
2017-10-19T15:31:20.372Z,100427.63
2017-10-19T15:33:47.996Z,100427.72
2017-10-19T15:36:15.640Z,100425.89
2017-10-19T15:38:43.242Z,100429.75
2017-10-19T15:41:10.920Z,100430.20
2017-10-19T15:43:38.555Z,100425.71
2017-10-19T15:46:06.197Z,100435.63
2017-10-19T15:48:33.843Z,100437.65
2017-10-19T15:51:13.252Z,100436.87
2017-10-19T15:53:40.871Z,100435.23
2017-10-19T15:56:08.555Z,100434.48
2017-10-19T15:58:36.204Z,100440.92
2017-10-19T16:01:04.396Z,100442.18
2017-10-19T16:03:32.093Z,100445.77
2017-10-19T16:05:59.704Z,100445.97
2017-10-19T16:08:27.417Z,100444.16
2017-10-19T16:10:55.029Z,100448.03
2017-10-19T16:13:22.664Z,100446.70
2017-10-19T16:15:50.273Z,100450.34
2017-10-19T16:18:17.923Z,100448.81
2017-10-19T16:20:45.523Z,100458.41
2017-10-19T16:23:13.164Z,100456.15
2017-10-19T16:25:40.788Z,100457.39
2017-10-19T16:28:08.428Z,100457.11
2017-10-19T16:30:36.148Z,100462.28
2017-10-19T16:33:03.892Z,100463.30
2017-10-19T16:35:31.514Z,100465.75
2017-10-19T16:37:59.145Z,100467.47
2017-10-19T16:40:26.759Z,100464.23
2017-10-19T16:42:54.394Z,100469.61
2017-10-19T16:45:22.087Z,100462.77
2017-10-19T16:47:49.725Z,100460.77
2017-10-19T16:50:17.349Z,100455.82
2017-10-19T16:52:44.987Z,100462.62
2017-10-19T16:55:12.620Z,100468.56
2017-10-19T16:57:40.287Z,100475.59
2017-10-19T17:00:07.880Z,100480.22
2017-10-19T17:02:35.544Z,100483.77
2017-10-19T17:05:03.152Z,100489.88
2017-10-19T17:07:30.878Z,100496.51
2017-10-19T17:09:58.487Z,100490.87
2017-10-19T17:12:26.187Z,100496.89
2017-10-19T17:14:53.812Z,100498.17
2017-10-19T17:17:21.480Z,100501.38
2017-10-19T17:19:49.108Z,100502.50
2017-10-19T17:22:16.765Z,100502.83
2017-10-19T17:24:44.367Z,100504.89
2017-10-19T17:27:12.029Z,100515.67
2017-10-19T17:29:39.639Z,100506.03
2017-10-19T17:32:07.281Z,100502.61
2017-10-19T17:34:34.900Z,100504.76
2017-10-19T17:37:02.555Z,100498.30
2017-10-19T17:39:30.244Z,100504.33
2017-10-19T17:41:57.899Z,100499.84
2017-10-19T17:44:25.547Z,100507.19
2017-10-19T17:46:53.163Z,100501.63
2017-10-19T17:49:20.849Z,100489.08
2017-10-19T17:51:48.501Z,100490.19
2017-10-19T17:54:16.158Z,100506.96
2017-10-19T17:56:43.832Z,100520.36
2017-10-19T17:59:13.490Z,100510.63
2017-10-19T18:01:41.134Z,100512.23
2017-10-19T18:04:08.801Z,100513.68
2017-10-19T18:06:36.617Z,100515.52
2017-10-19T18:09:04.272Z,100508.33
2017-10-19T18:11:31.939Z,100513.05
2017-10-19T18:13:59.611Z,100502.02
2017-10-19T18:16:27.220Z,100503.55
2017-10-19T18:18:54.997Z,100508.09
2017-10-19T18:21:22.619Z,100504.80
2017-10-19T18:23:50.331Z,100502.33
2017-10-19T18:26:17.930Z,100504.23
2017-10-19T18:28:45.552Z,100504.00
2017-10-19T18:31:13.184Z,100508.47
2017-10-19T18:33:40.798Z,100516.08
2017-10-19T18:36:08.452Z,100508.48
2017-10-19T18:38:36.160Z,100503.76
2017-10-19T18:41:03.791Z,100503.44
2017-10-19T18:43:31.391Z,100499.86
2017-10-19T18:45:59.052Z,100499.77
2017-10-19T18:48:26.670Z,100498.81
2017-10-19T18:50:54.264Z,100494.74
2017-10-19T18:53:21.877Z,100500.82
2017-10-19T18:55:49.672Z,100498.92
2017-10-19T18:58:17.262Z,100499.05
2017-10-19T19:00:44.923Z,100499.05
2017-10-19T19:03:12.539Z,100493.78
2017-10-19T19:05:40.192Z,100492.27
2017-10-19T19:08:07.809Z,100493.78
2017-10-19T19:10:35.477Z,100491.64
2017-10-19T19:13:03.090Z,100488.75
2017-10-19T19:15:30.870Z,100486.94
2017-10-19T19:17:58.468Z,100487.80
2017-10-19T19:20:26.168Z,100485.27
2017-10-19T19:22:53.799Z,100487.82
2017-10-19T19:25:21.436Z,100485.02
2017-10-19T19:27:49.140Z,100484.94
2017-10-19T19:30:16.795Z,100490.95
2017-10-19T19:32:44.435Z,100488.08
2017-10-19T19:35:12.290Z,100496.45
2017-10-19T19:37:39.921Z,100492.55
2017-10-19T19:40:07.551Z,100492.28
2017-10-19T19:42:35.155Z,100485.04
2017-10-19T19:45:02.898Z,100487.09
2017-10-19T19:47:30.523Z,100483.20
2017-10-19T19:49:58.172Z,100486.32
2017-10-19T19:52:25.775Z,100475.55
2017-10-19T19:54:53.427Z,100479.77
2017-10-19T19:57:21.002Z,100481.77
2017-10-19T19:59:48.658Z,100476.66
2017-10-19T20:02:16.387Z,100479.69
2017-10-19T20:04:44.056Z,100483.68
2017-10-19T20:07:11.666Z,100486.69
2017-10-19T20:09:39.287Z,100487.50
2017-10-19T20:12:06.883Z,100489.16
2017-10-19T20:14:34.552Z,100495.78
2017-10-19T20:17:02.163Z,100489.78
2017-10-19T20:19:29.807Z,100496.95
2017-10-19T20:21:57.439Z,100490.56
2017-10-19T20:24:25.062Z,100493.59
2017-10-19T20:26:52.665Z,100487.83
2017-10-19T20:29:20.316Z,100486.88
2017-10-19T20:31:47.910Z,100492.38
2017-10-19T20:34:15.544Z,100494.02
2017-10-19T20:36:43.156Z,100486.53
2017-10-19T20:39:10.822Z,100495.70
2017-10-19T20:41:38.449Z,100495.28
2017-10-19T20:44:06.264Z,100495.61
2017-10-19T20:46:33.908Z,100490.63
2017-10-19T20:49:01.573Z,100483.16
2017-10-19T20:51:30.257Z,100491.83
2017-10-19T20:53:57.889Z,100484.79
2017-10-19T20:56:25.491Z,100487.25
2017-10-19T20:58:53.142Z,100487.25
2017-10-19T21:01:20.754Z,100484.42
2017-10-19T21:03:48.399Z,100482.81
2017-10-19T21:06:16.027Z,100481.77
2017-10-19T21:08:43.662Z,100479.31
2017-10-19T21:11:11.284Z,100481.84
2017-10-19T21:13:38.923Z,100482.62
2017-10-19T21:16:06.559Z,100481.19
2017-10-19T21:18:34.203Z,100481.66
2017-10-19T21:21:01.829Z,100477.28
2017-10-19T21:23:29.459Z,100477.59
2017-10-19T21:25:57.075Z,100477.81
2017-10-19T21:28:24.754Z,100481.00
2017-10-19T21:30:52.375Z,100469.75
2017-10-19T21:33:20.083Z,100470.00
2017-10-19T21:35:47.696Z,100474.67
2017-10-19T21:38:15.327Z,100480.66
2017-10-19T21:40:42.960Z,100462.42
2017-10-19T21:43:10.594Z,100449.98
2017-10-19T21:45:38.189Z,100456.88
2017-10-19T21:48:05.841Z,100452.38
2017-10-19T21:50:33.439Z,100458.67
2017-10-19T21:53:01.071Z,100454.05
2017-10-19T21:55:28.665Z,100452.53
2017-10-19T21:57:56.310Z,100454.30
2017-10-19T22:00:23.932Z,100446.46
2017-10-19T22:02:51.586Z,100445.98
2017-10-19T22:05:20.053Z,100443.81
2017-10-19T22:07:47.687Z,100439.53
2017-10-19T22:10:15.282Z,100438.86
2017-10-19T22:12:42.938Z,100435.62
2017-10-19T22:15:10.550Z,100430.15
2017-10-19T22:17:38.134Z,100420.80
2017-10-19T22:20:05.768Z,100429.49
2017-10-19T22:22:33.375Z,100425.27
2017-10-19T22:25:01.031Z,100430.84
2017-10-19T22:27:28.637Z,100433.39
2017-10-19T22:29:56.404Z,100430.40
2017-10-19T22:32:24.004Z,100437.64
2017-10-19T22:34:51.646Z,100428.86
2017-10-19T22:37:19.290Z,100419.98
2017-10-19T22:39:46.914Z,100418.62
2017-10-19T22:42:14.518Z,100412.08
2017-10-19T22:44:42.306Z,100403.20
2017-10-19T22:47:10.016Z,100410.54
2017-10-19T22:49:37.687Z,100408.46
2017-10-19T22:52:05.345Z,100411.23
2017-10-19T22:54:33.092Z,100411.58
2017-10-19T22:57:00.695Z,100410.63
2017-10-19T22:59:28.443Z,100414.31
2017-10-19T23:01:56.044Z,100422.12
2017-10-19T23:04:23.702Z,100421.73
2017-10-19T23:06:51.304Z,100428.47
2017-10-19T23:09:18.907Z,100437.66
2017-10-19T23:11:46.542Z,100448.61
2017-10-19T23:14:14.147Z,100453.58
2017-10-19T23:16:41.774Z,100447.89
2017-10-19T23:19:09.417Z,100447.39
2017-10-19T23:21:37.015Z,100443.28
2017-10-19T23:24:04.862Z,100444.47
2017-10-19T23:26:32.481Z,100444.95
2017-10-19T23:29:00.109Z,100452.12
2017-10-19T23:31:27.695Z,100458.91
2017-10-19T23:33:55.436Z,100456.28
2017-10-19T23:36:23.059Z,100461.86
2017-10-19T23:38:50.699Z,100446.36
2017-10-19T23:41:18.301Z,100448.25
2017-10-19T23:43:45.943Z,100454.27
2017-10-19T23:46:13.556Z,100461.35
2017-10-19T23:48:41.197Z,100460.25
2017-10-19T23:51:08.915Z,100472.34
2017-10-19T23:53:36.529Z,100473.63
2017-10-19T23:56:04.162Z,100475.23
2017-10-19T23:58:31.772Z,100480.25
